Time;durP1;ratioP1;P1;durP2;ratioP2;P2;SDS_P1;SDS_P2;PMS_P1;PMS_P2;Temp;Humidity;BMP_temperature;BMP_pressure;BME280_temperature;BME280_humidity;BME280_pressure;Samples;Min_cycle;Max_cycle;Signal;HPM_P1;HPM_P2
2023/10/18 00:01:39;;;;;;;0.45;0.45;;;8.00;99.90;;;;;;5005025;28;20043;-65
2023/10/18 00:04:06;;;;;;;0.20;0.20;;;8.00;99.90;;;;;;5003254;28;20123;-65
2023/10/18 00:06:32;;;;;;;0.10;0.10;;;8.00;99.90;;;;;;5004687;28;20446;-65
2023/10/18 00:08:59;;;;;;;0.00;0.00;;;8.00;99.90;;;;;;5000533;28;20061;-65
2023/10/18 00:11:25;;;;;;;0.10;0.10;;;8.00;99.90;;;;;;5001049;28;20506;-64
2023/10/18 00:13:53;;;;;;;0.15;0.15;;;8.00;99.90;;;;;;4995756;28;20437;-65
2023/10/18 00:16:21;;;;;;;0.43;0.43;;;8.00;99.90;;;;;;5005857;28;20112;-65
2023/10/18 00:18:47;;;;;;;0.10;0.10;;;7.90;99.90;;;;;;5003147;28;20042;-65
2023/10/18 00:21:13;;;;;;;0.25;0.25;;;7.90;99.90;;;;;;5002798;28;20061;-65
2023/10/18 00:23:39;;;;;;;0.10;0.10;;;7.90;99.90;;;;;;5002667;28;20057;-65
2023/10/18 00:26:09;;;;;;;0.10;0.10;;;7.90;99.90;;;;;;4994347;28;20125;-65
2023/10/18 00:28:39;;;;;;;3.20;1.02;;;7.90;99.90;;;;;;4998079;28;20041;-65
2023/10/18 00:31:21;;;;;;;0.00;0.00;;;7.90;99.90;;;;;;5006444;28;20061;-65
2023/10/18 00:33:47;;;;;;;0.40;0.35;;;7.90;99.90;;;;;;5004270;28;20049;-65
2023/10/18 00:36:16;;;;;;;0.10;0.10;;;7.80;99.90;;;;;;4998682;28;20509;-65
2023/10/18 00:38:43;;;;;;;19.92;1.58;;;7.80;99.90;;;;;;5002670;28;20034;-65
2023/10/18 00:41:16;;;;;;;0.28;0.28;;;7.90;99.90;;;;;;5001091;28;20052;-65
2023/10/18 00:43:45;;;;;;;0.03;0.03;;;7.80;99.90;;;;;;4994497;28;20823;-65
2023/10/18 00:46:14;;;;;;;0.08;0.08;;;7.80;99.90;;;;;;5001686;28;20066;-65
2023/10/18 00:48:40;;;;;;;0.05;0.05;;;7.80;99.90;;;;;;5004678;28;20386;-65
2023/10/18 00:51:09;;;;;;;1.02;0.45;;;7.80;99.90;;;;;;5000078;28;20068;-65
2023/10/18 00:53:38;;;;;;;0.52;0.52;;;7.70;99.90;;;;;;4997714;28;20117;-65
2023/10/18 00:56:07;;;;;;;0.10;0.10;;;7.80;99.90;;;;;;5004562;28;20130;-65
2023/10/18 00:58:34;;;;;;;0.10;0.10;;;7.80;99.90;;;;;;5001056;28;20549;-64
2023/10/18 01:01:09;;;;;;;0.10;0.10;;;7.80;99.90;;;;;;5008973;28;20042;-65
2023/10/18 01:03:45;;;;;;;2.35;0.63;;;7.80;99.90;;;;;;4998540;28;20047;-65
2023/10/18 01:06:17;;;;;;;0.05;0.05;;;7.80;99.90;;;;;;5002994;28;20048;-65
2023/10/18 01:08:49;;;;;;;1.55;0.82;;;7.70;99.90;;;;;;4994518;28;20053;-65
2023/10/18 01:11:18;;;;;;;0.32;0.32;;;7.70;99.90;;;;;;4997517;28;20048;-65
2023/10/18 01:13:45;;;;;;;0.30;0.30;;;7.70;99.90;;;;;;5004613;28;20053;-65
2023/10/18 01:16:14;;;;;;;0.10;0.10;;;7.70;99.90;;;;;;5010105;28;20788;-65
2023/10/18 01:18:44;;;;;;;0.20;0.20;;;7.70;99.90;;;;;;4998849;28;20046;-65
2023/10/18 01:21:19;;;;;;;0.30;0.30;;;7.80;99.90;;;;;;5006330;28;20061;-65
2023/10/18 01:23:49;;;;;;;0.38;0.38;;;7.70;99.90;;;;;;5008774;28;20053;-65
2023/10/18 01:26:18;;;;;;;1.23;1.13;;;7.70;99.90;;;;;;5001242;28;20080;-65
2023/10/18 01:28:44;;;;;;;0.70;0.70;;;7.70;99.90;;;;;;5004610;28;20073;-65
2023/10/18 01:31:10;;;;;;;0.20;0.20;;;7.70;99.90;;;;;;5005530;28;20065;-65
2023/10/18 01:33:39;;;;;;;0.47;0.47;;;7.70;99.90;;;;;;4997001;28;20080;-64
2023/10/18 01:36:06;;;;;;;0.47;0.47;;;7.70;99.90;;;;;;5006356;28;20050;-65
2023/10/18 01:38:33;;;;;;;0.20;0.20;;;7.70;99.90;;;;;;4999897;28;20030;-65
2023/10/18 01:41:08;;;;;;;0.30;0.30;;;7.70;99.90;;;;;;5007244;28;20490;-65
2023/10/18 01:43:36;;;;;;;0.17;0.17;;;7.70;99.90;;;;;;5006376;28;20050;-65
2023/10/18 01:46:04;;;;;;;0.15;0.15;;;7.70;99.90;;;;;;5003332;28;20042;-65
2023/10/18 01:48:37;;;;;;;0.75;0.73;;;7.60;99.90;;;;;;5001724;28;20046;-65
2023/10/18 01:51:06;;;;;;;0.20;0.20;;;7.60;99.90;;;;;;5006100;28;20561;-65
2023/10/18 01:53:38;;;;;;;0.10;0.10;;;7.60;99.90;;;;;;5000750;28;20097;-65
2023/10/18 01:56:04;;;;;;;0.32;0.32;;;7.60;99.90;;;;;;4998672;28;20054;-65
2023/10/18 01:58:30;;;;;;;0.40;0.40;;;7.60;99.90;;;;;;5004211;28;20042;-65
2023/10/18 02:00:56;;;;;;;0.10;0.10;;;7.60;99.90;;;;;;5007930;28;20058;-65
2023/10/18 02:03:23;;;;;;;0.22;0.22;;;7.60;99.90;;;;;;4998644;28;20049;-65
2023/10/18 02:05:49;;;;;;;0.20;0.20;;;7.50;99.90;;;;;;5006468;28;20437;-65
2023/10/18 02:08:15;;;;;;;0.73;0.73;;;7.50;99.90;;;;;;4998353;28;20042;-65
2023/10/18 02:10:49;;;;;;;0.10;0.10;;;7.60;99.90;;;;;;5010750;28;20502;-65
2023/10/18 02:13:15;;;;;;;;;;;7.50;99.90;;;;;;5007878;28;20037;-65
2023/10/18 02:15:41;;;;;;;0.15;0.15;;;7.50;99.90;;;;;;5002611;28;19922;-65
2023/10/18 02:18:10;;;;;;;0.65;0.55;;;7.60;99.90;;;;;;5002416;28;20049;-65
2023/10/18 02:20:39;;;;;;;0.10;0.10;;;7.60;99.90;;;;;;5008281;28;20779;-65
2023/10/18 02:23:11;;;;;;;0.43;0.43;;;7.50;99.90;;;;;;5002431;28;20572;-65
2023/10/18 02:25:44;;;;;;;0.20;0.20;;;7.60;99.90;;;;;;4995623;28;20050;-65
2023/10/18 02:28:22;;;;;;;0.10;0.10;;;7.60;99.90;;;;;;5006102;28;20065;-65
2023/10/18 02:30:56;;;;;;;0.10;0.10;;;7.50;99.90;;;;;;5004761;28;20053;-65
2023/10/18 02:33:24;;;;;;;0.17;0.17;;;7.50;99.90;;;;;;5000745;28;20410;-65
2023/10/18 02:35:50;;;;;;;0.10;0.10;;;7.60;99.90;;;;;;5009223;28;20065;-65
2023/10/18 02:38:15;;;;;;;0.20;0.20;;;7.50;99.90;;;;;;5010543;28;20408;-65
2023/10/18 02:40:43;;;;;;;0.10;0.10;;;7.50;99.90;;;;;;5001907;28;20085;-65
2023/10/18 02:43:11;;;;;;;0.20;0.20;;;7.50;99.90;;;;;;5002367;28;20379;-65
2023/10/18 02:45:42;;;;;;;0.47;0.47;;;7.50;99.90;;;;;;5009136;28;20509;-65
2023/10/18 02:48:13;;;;;;;0.22;0.22;;;7.50;99.90;;;;;;5001028;28;20086;-65
2023/10/18 02:50:40;;;;;;;0.25;0.25;;;7.50;99.90;;;;;;5001963;28;20453;-65
2023/10/18 02:53:06;;;;;;;1.02;0.60;;;7.50;99.90;;;;;;5006964;28;20092;-65
2023/10/18 02:55:34;;;;;;;0.10;0.10;;;7.40;99.90;;;;;;5003771;28;20088;-65
2023/10/18 02:57:59;;;;;;;1.95;0.85;;;7.40;99.90;;;;;;5000413;28;20506;-65
2023/10/18 03:00:26;;;;;;;0.40;0.40;;;7.40;99.90;;;;;;5005430;28;20047;-65
2023/10/18 03:02:54;;;;;;;0.25;0.25;;;7.40;99.90;;;;;;5004634;28;20057;-65
2023/10/18 03:05:20;;;;;;;1.30;0.75;;;7.40;99.90;;;;;;5003308;28;20038;-65
2023/10/18 03:07:46;;;;;;;1.77;0.95;;;7.40;99.90;;;;;;5005211;28;20577;-65
2023/10/18 03:10:11;;;;;;;7.68;2.40;;;7.30;99.90;;;;;;5005492;28;20048;-65
2023/10/18 03:12:38;;;;;;;0.30;0.30;;;7.30;99.90;;;;;;5003082;28;20045;-64
2023/10/18 03:15:09;;;;;;;0.70;0.70;;;7.30;99.90;;;;;;5003460;28;20045;-65
2023/10/18 03:17:37;;;;;;;0.45;0.45;;;7.30;99.90;;;;;;5002016;28;20395;-65
2023/10/18 03:20:26;;;;;;;0.10;0.10;;;7.30;99.90;;;;;;4999576;28;20113;-65
2023/10/18 03:22:51;;;;;;;0.45;0.45;;;7.30;99.90;;;;;;4996101;28;20900;-65
2023/10/18 03:25:17;;;;;;;8.57;1.10;;;7.30;99.90;;;;;;5010392;28;20056;-65
2023/10/18 03:27:50;;;;;;;3.75;1.52;;;7.30;99.90;;;;;;5022563;28;20046;-65
2023/10/18 03:30:20;;;;;;;2.25;1.90;;;7.20;99.90;;;;;;5003524;28;20053;-65
2023/10/18 03:32:53;;;;;;;0.70;0.70;;;7.20;99.90;;;;;;5006759;28;20050;-65
2023/10/18 03:35:22;;;;;;;0.20;0.20;;;7.20;99.90;;;;;;5000646;28;20038;-65
2023/10/18 03:37:48;;;;;;;0.95;0.95;;;7.20;99.90;;;;;;5006745;28;20041;-64
2023/10/18 03:40:26;;;;;;;0.35;0.35;;;7.30;99.90;;;;;;5002898;28;20073;-65
2023/10/18 03:42:53;;;;;;;0.20;0.20;;;7.30;99.90;;;;;;5004072;28;20050;-65
2023/10/18 03:45:22;;;;;;;0.93;0.90;;;7.20;99.90;;;;;;5005737;28;20112;-65
2023/10/18 03:47:58;;;;;;;0.75;0.47;;;7.20;99.90;;;;;;5006967;28;20522;-65
2023/10/18 03:50:37;;;;;;;0.73;0.73;;;7.20;99.90;;;;;;5005283;28;20812;-65
2023/10/18 03:53:02;;;;;;;0.15;0.15;;;7.20;99.90;;;;;;5006288;28;20053;-65
2023/10/18 03:55:37;;;;;;;1.35;1.27;;;7.20;99.90;;;;;;4998195;28;20038;-65
2023/10/18 03:58:04;;;;;;;0.82;0.82;;;7.20;99.90;;;;;;4998597;28;20042;-65
2023/10/18 04:00:39;;;;;;;1.08;1.00;;;7.10;99.90;;;;;;5009086;28;20042;-65
2023/10/18 04:03:10;;;;;;;0.35;0.35;;;7.20;99.90;;;;;;5001366;28;20452;-65
2023/10/18 04:05:42;;;;;;;1.98;1.27;;;7.20;99.90;;;;;;5006479;28;20262;-65
2023/10/18 04:08:17;;;;;;;0.30;0.30;;;7.20;99.90;;;;;;4999189;28;20054;-65
2023/10/18 04:10:44;;;;;;;0.63;0.63;;;7.10;99.90;;;;;;5006482;28;20054;-65
2023/10/18 04:13:14;;;;;;;0.10;0.10;;;7.10;99.90;;;;;;5004601;28;20100;-65
2023/10/18 04:15:52;;;;;;;0.82;0.82;;;7.10;99.90;;;;;;5007123;28;20095;-65
2023/10/18 04:18:29;;;;;;;0.00;0.00;;;7.20;99.90;;;;;;5002229;28;20046;-65
2023/10/18 04:20:58;;;;;;;0.68;0.63;;;7.10;99.90;;;;;;5005263;28;20057;-65
2023/10/18 04:23:27;;;;;;;1.10;1.05;;;7.10;99.90;;;;;;4998265;28;20390;-65
2023/10/18 04:28:25;;;;;;;0.22;0.22;;;7.10;99.90;;;;;;5023073;28;20057;-65
2023/10/18 04:30:59;;;;;;;0.10;0.10;;;7.10;99.90;;;;;;5005006;28;20106;-64
2023/10/18 04:33:35;;;;;;;0.85;0.85;;;7.20;99.90;;;;;;5006870;28;20056;-64
2023/10/18 04:36:09;;;;;;;0.10;0.10;;;7.20;99.90;;;;;;5008246;28;20137;-65
2023/10/18 04:38:42;;;;;;;0.10;0.10;;;7.10;99.90;;;;;;4998483;28;20082;-65
2023/10/18 04:41:08;;;;;;;;;;;7.10;99.90;;;;;;4999963;28;20077;-65
2023/10/18 04:43:35;;;;;;;0.30;0.30;;;7.10;99.90;;;;;;5004142;28;20014;-65
2023/10/18 04:46:25;;;;;;;0.10;0.10;;;7.10;99.90;;;;;;5008863;28;20048;-65
2023/10/18 04:51:29;;;;;;;3.17;1.23;;;7.00;99.90;;;;;;5001163;28;20478;-65
2023/10/18 04:53:57;;;;;;;0.10;0.10;;;7.00;99.90;;;;;;4999569;28;20046;-65
2023/10/18 04:56:32;;;;;;;0.57;0.57;;;7.10;99.90;;;;;;5017507;28;20388;-64
2023/10/18 04:59:06;;;;;;;0.25;0.25;;;7.10;99.90;;;;;;4999561;28;20052;-65
2023/10/18 05:01:36;;;;;;;0.10;0.10;;;7.10;99.90;;;;;;4998112;28;20193;-65
2023/10/18 05:04:47;;;;;;;0.30;0.30;;;7.00;99.90;;;;;;4998721;28;20486;-65
2023/10/18 05:06:54;;;;;;;0.90;0.90;;;7.00;99.90;;;;;;4994119;28;20124;-65
2023/10/18 05:09:29;;;;;;;0.50;0.50;;;7.00;99.90;;;;;;5003810;28;20137;-65
2023/10/18 05:12:16;;;;;;;0.38;0.38;;;7.10;99.90;;;;;;5004960;28;20063;-65
2023/10/18 05:14:42;;;;;;;0.28;0.28;;;7.00;99.90;;;;;;4996873;28;20054;-65
2023/10/18 05:17:21;;;;;;;0.43;0.43;;;7.00;99.90;;;;;;5001340;28;20045;-65
2023/10/18 05:19:48;;;;;;;0.22;0.22;;;7.00;99.90;;;;;;5004400;28;20050;-65
2023/10/18 05:22:19;;;;;;;5.82;2.40;;;7.10;99.90;;;;;;5003211;28;20045;-65
2023/10/18 05:24:54;;;;;;;0.10;0.10;;;7.10;99.90;;;;;;5000459;28;20038;-65
2023/10/18 05:27:24;;;;;;;1.58;1.10;;;7.10;99.90;;;;;;5001360;28;20493;-65
2023/10/18 05:29:59;;;;;;;0.50;0.50;;;7.10;99.90;;;;;;5004445;28;20494;-65
2023/10/18 05:35:19;;;;;;;0.40;0.40;;;7.20;99.90;;;;;;5005136;28;20454;-65
2023/10/18 05:37:50;;;;;;;0.60;0.60;;;7.20;99.90;;;;;;5003776;28;20041;-65
2023/10/18 05:43:03;;;;;;;0.10;0.10;;;7.10;99.90;;;;;;5005871;28;20402;-65
2023/10/18 05:45:31;;;;;;;0.10;0.10;;;7.20;99.90;;;;;;5003859;28;20073;-65
2023/10/18 05:48:12;;;;;;;0.35;0.35;;;7.10;99.90;;;;;;5006497;28;20045;-64
2023/10/18 05:50:38;;;;;;;2.55;0.82;;;7.10;99.90;;;;;;4993239;28;20969;-65
2023/10/18 05:53:10;;;;;;;0.20;0.20;;;7.20;99.90;;;;;;5006159;28;20042;-65
2023/10/18 05:55:38;;;;;;;0.25;0.25;;;7.20;99.90;;;;;;5006191;28;20052;-65
2023/10/18 05:58:05;;;;;;;0.55;0.55;;;7.20;99.90;;;;;;5000535;28;20054;-65
2023/10/18 06:00:37;;;;;;;0.20;0.20;;;7.20;99.90;;;;;;5002860;28;20386;-65
2023/10/18 06:03:03;;;;;;;1.90;1.65;;;7.20;99.90;;;;;;5007054;28;20046;-65
2023/10/18 06:05:33;;;;;;;0.40;0.40;;;7.20;99.90;;;;;;5005245;28;20046;-65
2023/10/18 06:07:59;;;;;;;0.43;0.43;;;7.20;99.90;;;;;;5000445;28;20046;-65
2023/10/18 06:10:26;;;;;;;0.45;0.45;;;7.20;99.90;;;;;;5004336;28;20038;-65
2023/10/18 06:13:10;;;;;;;0.52;0.52;;;7.30;99.90;;;;;;5001074;28;20170;-65
2023/10/18 06:15:38;;;;;;;;;;;7.30;99.90;;;;;;5000144;28;20288;-66
2023/10/18 06:18:09;;;;;;;0.10;0.10;;;7.20;99.90;;;;;;4999190;28;20361;-65
2023/10/18 06:20:41;;;;;;;0.50;0.50;;;7.20;99.90;;;;;;4999436;28;20030;-65
2023/10/18 06:23:36;;;;;;;0.50;0.50;;;7.30;99.90;;;;;;5004778;28;21956;-65
2023/10/18 06:25:59;;;;;;;0.10;0.10;;;7.30;99.90;;;;;;5001944;28;20497;-65
2023/10/18 06:28:25;;;;;;;3.65;1.55;;;7.40;99.90;;;;;;5002076;28;20046;-65
2023/10/18 06:30:52;;;;;;;1.75;1.65;;;7.40;99.90;;;;;;4998912;28;20046;-65
2023/10/18 06:33:26;;;;;;;0.50;0.50;;;7.30;99.90;;;;;;5003021;28;20046;-65
2023/10/18 06:35:52;;;;;;;0.20;0.20;;;7.40;99.90;;;;;;5001314;28;20054;-65
2023/10/18 06:38:24;;;;;;;0.20;0.20;;;7.40;99.90;;;;;;5011194;28;20049;-65
2023/10/18 06:41:01;;;;;;;0.20;0.20;;;7.40;99.90;;;;;;4996174;28;20049;-65
2023/10/18 06:43:27;;;;;;;0.10;0.10;;;7.40;99.90;;;;;;5006575;28;20193;-65
2023/10/18 06:45:53;;;;;;;0.20;0.20;;;7.50;99.90;;;;;;5002738;28;20042;-65
2023/10/18 06:48:26;;;;;;;0.70;0.70;;;7.40;99.90;;;;;;4999143;28;20208;-65
2023/10/18 06:50:53;;;;;;;0.25;0.25;;;7.40;99.90;;;;;;5003874;28;20061;-65
2023/10/18 06:53:20;;;;;;;3.92;0.95;;;7.50;99.90;;;;;;5007134;28;20053;-65
2023/10/18 06:55:55;;;;;;;1.25;1.15;;;7.40;99.90;;;;;;5006596;28;20042;-65
2023/10/18 07:01:00;;;;;;;0.22;0.22;;;7.60;99.90;;;;;;5004237;28;20081;-65
2023/10/18 07:03:29;;;;;;;0.10;0.10;;;7.60;99.90;;;;;;5000842;28;20047;-65
2023/10/18 07:06:04;;;;;;;0.95;0.93;;;7.60;99.90;;;;;;5000722;28;20416;-65
2023/10/18 07:08:32;;;;;;;0.10;0.10;;;7.60;99.90;;;;;;5001780;28;20074;-65
2023/10/18 07:11:01;;;;;;;0.10;0.10;;;7.50;99.90;;;;;;5009843;28;20120;-65
2023/10/18 07:13:33;;;;;;;0.20;0.20;;;7.50;99.90;;;;;;4999813;28;20038;-65
2023/10/18 07:16:12;;;;;;;0.75;0.75;;;7.60;99.90;;;;;;5004505;28;20069;-65
2023/10/18 07:18:39;;;;;;;0.95;0.95;;;7.60;99.90;;;;;;4998819;28;20079;-65
2023/10/18 07:21:06;;;;;;;3.33;2.00;;;7.70;99.90;;;;;;5002463;28;20116;-65
2023/10/18 07:23:36;;;;;;;0.55;0.43;;;7.70;99.90;;;;;;5004727;28;20414;-65
2023/10/18 07:26:07;;;;;;;0.40;0.40;;;7.80;99.90;;;;;;4998293;28;20047;-65
2023/10/18 07:28:36;;;;;;;0.20;0.20;;;7.80;99.90;;;;;;5005159;28;20054;-65
2023/10/18 07:31:08;;;;;;;0.10;0.10;;;7.80;99.90;;;;;;5006267;28;20043;-65
2023/10/18 07:33:40;;;;;;;0.40;0.40;;;7.80;99.90;;;;;;5000098;28;20486;-65
2023/10/18 07:36:11;;;;;;;0.50;0.50;;;7.80;99.90;;;;;;5000478;28;20061;-65
2023/10/18 07:38:39;;;;;;;0.28;0.28;;;7.90;99.90;;;;;;5002473;28;20471;-65
2023/10/18 07:41:07;;;;;;;0.57;0.57;;;8.00;99.90;;;;;;5008305;28;20454;-65
2023/10/18 07:43:37;;;;;;;0.20;0.20;;;7.90;99.90;;;;;;5000871;28;20129;-65
2023/10/18 07:46:18;;;;;;;0.68;0.68;;;7.90;99.90;;;;;;5006300;28;20041;-65
2023/10/18 07:48:47;;;;;;;0.10;0.10;;;8.00;99.90;;;;;;5009000;28;20052;-65
2023/10/18 07:51:26;;;;;;;0.28;0.28;;;8.10;99.90;;;;;;5001061;28;20092;-65
2023/10/18 07:53:53;;;;;;;1.67;1.05;;;8.10;99.90;;;;;;5007059;28;20081;-65
2023/10/18 07:56:29;;;;;;;0.30;0.30;;;8.20;99.90;;;;;;5003610;28;20038;-65
2023/10/18 07:59:27;;;;;;;0.52;0.52;;;8.20;99.90;;;;;;5009367;28;20042;-65
2023/10/18 08:01:51;;;;;;;0.77;0.77;;;8.30;99.90;;;;;;4997932;28;20076;-64
2023/10/18 08:04:19;;;;;;;0.65;0.65;;;8.40;99.90;;;;;;4993695;28;20041;-65
2023/10/18 08:06:45;;;;;;;0.40;0.40;;;8.40;99.90;;;;;;4995274;28;20549;-65
2023/10/18 08:09:12;;;;;;;2.72;1.85;;;8.40;99.90;;;;;;5006732;28;20450;-65
2023/10/18 08:11:38;;;;;;;0.20;0.20;;;8.50;99.90;;;;;;5005782;28;20046;-65
2023/10/18 08:14:16;;;;;;;0.43;0.43;;;8.50;99.90;;;;;;4994937;28;20049;-65
2023/10/18 08:16:51;;;;;;;0.35;0.35;;;8.50;99.90;;;;;;5004125;28;20053;-65
2023/10/18 08:19:22;;;;;;;1.17;1.10;;;8.50;99.90;;;;;;5001488;28;20096;-65
2023/10/18 08:24:35;;;;;;;0.55;0.55;;;8.60;99.90;;;;;;5006223;28;20092;-64
2023/10/18 08:27:09;;;;;;;0.10;0.10;;;8.60;99.90;;;;;;4997765;28;20046;-65
2023/10/18 08:29:35;;;;;;;0.98;0.98;;;8.70;99.90;;;;;;4998711;28;20078;-65
2023/10/18 08:32:06;;;;;;;0.15;0.15;;;8.80;99.90;;;;;;5003997;28;20038;-65
2023/10/18 08:34:32;;;;;;;0.10;0.10;;;8.80;99.90;;;;;;4999617;28;20051;-65
2023/10/18 08:37:06;;;;;;;0.50;0.50;;;8.90;99.90;;;;;;5001509;28;20053;-65
2023/10/18 08:39:32;;;;;;;0.10;0.10;;;8.90;99.90;;;;;;5007760;28;20045;-65
2023/10/18 08:42:12;;;;;;;0.80;0.80;;;8.90;99.90;;;;;;5008986;28;20042;-65
2023/10/18 08:44:39;;;;;;;0.10;0.10;;;8.80;99.90;;;;;;5001858;28;20042;-65
2023/10/18 08:49:44;;;;;;;0.10;0.10;;;9.00;99.90;;;;;;5008609;28;20052;-65
2023/10/18 08:52:11;;;;;;;0.22;0.22;;;9.00;99.90;;;;;;5005427;28;20074;-65
2023/10/18 08:54:42;;;;;;;0.10;0.10;;;9.10;99.90;;;;;;4999551;28;20073;-65
2023/10/18 08:57:09;;;;;;;0.65;0.65;;;9.10;99.90;;;;;;5005230;28;20065;-65
2023/10/18 08:59:42;;;;;;;0.30;0.30;;;9.10;99.90;;;;;;5002582;28;20731;-65
2023/10/18 09:02:18;;;;;;;;;;;9.20;99.90;;;;;;5002579;28;20129;-65
2023/10/18 09:04:48;;;;;;;0.38;0.38;;;9.30;99.90;;;;;;5006459;28;19933;-65
2023/10/18 09:07:23;;;;;;;0.25;0.25;;;9.30;99.90;;;;;;4998267;28;20046;-65
2023/10/18 09:09:55;;;;;;;0.40;0.40;;;9.30;99.90;;;;;;5002090;28;20407;-65
2023/10/18 09:15:27;;;;;;;0.10;0.10;;;9.40;99.90;;;;;;4982749;28;20054;-65
2023/10/18 09:17:57;;;;;;;0.10;0.10;;;9.40;99.90;;;;;;5002580;28;20436;-65
2023/10/18 09:20:26;;;;;;;0.10;0.10;;;9.50;99.90;;;;;;5004837;28;20042;-65
2023/10/18 09:22:53;;;;;;;0.30;0.30;;;9.50;99.90;;;;;;5006066;28;20034;-65
2023/10/18 09:25:24;;;;;;;0.20;0.20;;;9.70;99.90;;;;;;5006765;28;20128;-65
2023/10/18 09:27:52;;;;;;;2.38;1.17;;;9.70;99.90;;;;;;4997412;28;20054;-65
2023/10/18 09:30:18;;;;;;;0.30;0.30;;;9.90;99.90;;;;;;5003831;28;20132;-65
2023/10/18 09:32:45;;;;;;;0.52;0.52;;;10.10;99.90;;;;;;5010771;28;20059;-65
2023/10/18 09:35:11;;;;;;;0.32;0.32;;;10.20;99.90;;;;;;5003578;28;20389;-65
2023/10/18 09:37:38;;;;;;;1.95;1.27;;;10.30;99.90;;;;;;5005223;28;20038;-65
2023/10/18 09:40:05;;;;;;;0.15;0.15;;;10.40;99.90;;;;;;5010811;28;20030;-65
2023/10/18 09:42:31;;;;;;;1.27;0.98;;;10.50;99.90;;;;;;5010888;28;20042;-66
2023/10/18 09:44:57;;;;;;;0.28;0.28;;;10.60;99.90;;;;;;5007076;28;20176;-65
2023/10/18 09:47:27;;;;;;;0.30;0.30;;;10.60;99.90;;;;;;5009912;28;20131;-65
2023/10/18 09:50:05;;;;;;;0.52;0.52;;;10.60;99.90;;;;;;5001945;28;20072;-65
2023/10/18 09:52:32;;;;;;;1.65;1.55;;;10.70;99.90;;;;;;5007516;28;20042;-65
2023/10/18 09:55:01;;;;;;;0.17;0.17;;;10.80;99.90;;;;;;5011969;28;20081;-65
2023/10/18 09:57:35;;;;;;;0.10;0.10;;;10.70;99.90;;;;;;5004955;28;20579;-65
2023/10/18 10:00:10;;;;;;;0.20;0.20;;;10.80;99.90;;;;;;5000656;28;20096;-65
2023/10/18 10:02:37;;;;;;;0.10;0.10;;;10.70;99.90;;;;;;4997914;28;20049;-65
2023/10/18 10:05:24;;;;;;;0.45;0.45;;;10.70;99.90;;;;;;5006754;28;20056;-65
2023/10/18 10:07:56;;;;;;;0.20;0.20;;;10.80;99.90;;;;;;5003221;28;20053;-65
2023/10/18 10:10:43;;;;;;;0.20;0.20;;;10.80;99.90;;;;;;5009383;28;20046;-65
2023/10/18 10:13:18;;;;;;;0.57;0.57;;;10.80;99.90;;;;;;5009369;28;20046;-65
2023/10/18 10:15:54;;;;;;;0.40;0.40;;;10.80;99.90;;;;;;4999460;28;20050;-65
2023/10/18 10:18:23;;;;;;;0.55;0.55;;;10.80;99.90;;;;;;5003477;28;20053;-65
2023/10/18 10:20:49;;;;;;;0.35;0.35;;;10.80;99.90;;;;;;5008996;28;20053;-65
2023/10/18 10:23:16;;;;;;;0.55;0.55;;;10.90;99.90;;;;;;5002042;28;20124;-65
2023/10/18 10:26:00;;;;;;;0.10;0.10;;;10.80;99.90;;;;;;5001537;28;20098;-65
2023/10/18 10:31:51;;;;;;;0.50;0.50;;;10.90;99.90;;;;;;5001941;28;20042;-65
2023/10/18 10:34:28;;;;;;;0.20;0.20;;;10.90;99.90;;;;;;5005361;28;20053;-64
2023/10/18 10:37:10;;;;;;;0.10;0.10;;;11.00;99.90;;;;;;5004869;28;20104;-64
2023/10/18 10:39:49;;;;;;;0.20;0.20;;;10.90;99.90;;;;;;5001935;28;20049;-64
2023/10/18 10:45:30;;;;;;;0.10;0.10;;;11.00;99.90;;;;;;5004390;28;20042;-64
2023/10/18 10:51:13;;;;;;;0.20;0.20;;;11.00;99.90;;;;;;5008465;28;20104;-65
2023/10/18 10:53:58;;;;;;;2.05;1.95;;;11.00;99.90;;;;;;5006881;28;20118;-66
2023/10/18 10:56:24;;;;;;;0.75;0.55;;;11.10;99.90;;;;;;5001144;28;20050;-65
2023/10/18 11:01:43;;;;;;;2.47;0.85;;;11.20;99.90;;;;;;4997010;28;20062;-65
2023/10/18 11:04:14;;;;;;;1.65;0.95;;;11.30;99.90;;;;;;5002013;28;20050;-65
2023/10/18 11:06:44;;;;;;;0.08;0.08;;;11.30;99.90;;;;;;5002781;28;20438;-65
2023/10/18 11:09:17;;;;;;;0.00;0.00;;;11.20;99.90;;;;;;4999838;28;20490;-65
2023/10/18 11:11:45;;;;;;;7.68;1.35;;;11.30;99.90;;;;;;5002539;28;20046;-65
2023/10/18 11:14:17;;;;;;;0.10;0.10;;;11.40;99.90;;;;;;5000071;28;20066;-65
2023/10/18 11:16:53;;;;;;;0.95;0.30;;;11.40;99.90;;;;;;5009338;28;20574;-65
2023/10/18 11:19:24;;;;;;;0.40;0.40;;;11.40;99.90;;;;;;5007675;28;20113;-65
2023/10/18 11:21:51;;;;;;;0.63;0.63;;;11.50;99.90;;;;;;5002978;28;20047;-65
2023/10/18 11:24:21;;;;;;;0.47;0.47;;;11.60;99.90;;;;;;4999515;28;20049;-65
2023/10/18 11:26:50;;;;;;;1.48;1.38;;;11.70;99.90;;;;;;5001659;28;20053;-65
2023/10/18 11:29:24;;;;;;;0.55;0.55;;;11.70;99.90;;;;;;4997927;28;20568;-65
2023/10/18 11:31:55;;;;;;;0.75;0.75;;;11.70;99.90;;;;;;5006342;28;20645;-65
2023/10/18 11:34:25;;;;;;;0.45;0.45;;;11.90;99.90;;;;;;5000530;28;20124;-65
2023/10/18 11:36:53;;;;;;;0.10;0.10;;;11.80;99.90;;;;;;5004902;28;20405;-65
2023/10/18 11:39:20;;;;;;;0.50;0.50;;;12.00;99.90;;;;;;5004209;28;20065;-65
2023/10/18 11:41:56;;;;;;;0.45;0.45;;;11.90;99.90;;;;;;5009074;28;20042;-66
2023/10/18 11:44:35;;;;;;;2.67;1.33;;;12.10;99.90;;;;;;4998764;28;20377;-66
2023/10/18 11:47:11;;;;;;;0.20;0.20;;;12.20;99.90;;;;;;5009641;28;20077;-66
2023/10/18 11:49:39;;;;;;;0.35;0.35;;;12.30;99.90;;;;;;4999214;28;20434;-65
2023/10/18 11:52:05;;;;;;;0.17;0.17;;;12.30;99.90;;;;;;5002128;28;20478;-66
2023/10/18 11:54:32;;;;;;;1.25;0.50;;;12.30;99.90;;;;;;5009766;28;20053;-65
2023/10/18 11:56:59;;;;;;;0.08;0.08;;;12.40;99.90;;;;;;5002103;28;20076;-65
2023/10/18 11:59:25;;;;;;;0.15;0.15;;;12.30;99.90;;;;;;4996413;28;20121;-65
2023/10/18 12:02:05;;;;;;;0.10;0.10;;;12.40;99.90;;;;;;4999382;28;20046;-65
2023/10/18 12:04:37;;;;;;;0.63;0.63;;;12.20;99.90;;;;;;5004538;28;20044;-65
2023/10/18 12:07:04;;;;;;;0.20;0.20;;;12.40;99.90;;;;;;4999575;28;20046;-65
2023/10/18 12:09:42;;;;;;;0.40;0.40;;;12.40;99.90;;;;;;4997610;28;20313;-65
2023/10/18 12:12:12;;;;;;;0.57;0.57;;;12.50;99.90;;;;;;4998682;28;20050;-65
2023/10/18 12:14:42;;;;;;;0.63;0.57;;;12.50;99.90;;;;;;5009975;28;20046;-65
2023/10/18 12:17:09;;;;;;;0.98;0.93;;;12.50;99.90;;;;;;5007741;28;20080;-65
2023/10/18 12:19:36;;;;;;;0.17;0.17;;;12.60;99.90;;;;;;4998199;28;20137;-64
2023/10/18 12:22:03;;;;;;;0.15;0.15;;;12.60;99.90;;;;;;5009566;28;20381;-65
2023/10/18 12:24:28;;;;;;;0.45;0.45;;;12.60;99.90;;;;;;4996046;28;20570;-65
2023/10/18 12:26:54;;;;;;;0.52;0.52;;;12.50;99.90;;;;;;5001722;28;20125;-65
2023/10/18 12:29:28;;;;;;;0.10;0.10;;;12.50;99.90;;;;;;4999406;28;20133;-65
2023/10/18 12:31:57;;;;;;;0.30;0.30;;;12.40;99.90;;;;;;5002105;28;20184;-65
2023/10/18 12:34:28;;;;;;;0.68;0.68;;;12.60;99.90;;;;;;5007838;28;20038;-65
2023/10/18 12:36:56;;;;;;;0.43;0.43;;;12.60;99.90;;;;;;5025599;28;20108;-65
2023/10/18 12:39:22;;;;;;;3.83;1.17;;;12.60;99.90;;;;;;4999213;28;20045;-65
2023/10/18 12:41:55;;;;;;;0.00;0.00;;;12.50;99.90;;;;;;5008806;28;20045;-65
2023/10/18 12:44:25;;;;;;;0.70;0.70;;;12.50;99.90;;;;;;5002183;28;20062;-65
2023/10/18 12:46:53;;;;;;;0.32;0.32;;;12.60;99.90;;;;;;4994701;28;20109;-65
2023/10/18 12:49:22;;;;;;;0.20;0.20;;;12.60;99.90;;;;;;4999566;28;20124;-65
2023/10/18 12:51:57;;;;;;;0.35;0.35;;;12.60;99.90;;;;;;4995996;28;20100;-65
2023/10/18 12:54:29;;;;;;;0.63;0.63;;;12.80;99.90;;;;;;5008283;28;20100;-65
2023/10/18 12:57:09;;;;;;;0.47;0.47;;;12.90;99.90;;;;;;4994292;28;20046;-65
2023/10/18 12:59:52;;;;;;;0.10;0.10;;;13.20;99.90;;;;;;5003731;28;20053;-65
2023/10/18 13:02:46;;;;;;;0.20;0.20;;;13.40;99.90;;;;;;5006497;28;20457;-65
2023/10/18 13:05:07;;;;;;;0.00;0.00;;;13.60;99.90;;;;;;5004560;28;20204;-65
2023/10/18 13:07:36;;;;;;;1.27;1.20;;;14.00;99.90;;;;;;5001246;28;20512;-65
2023/10/18 13:10:11;;;;;;;3.20;0.65;;;13.80;99.90;;;;;;5006395;28;20451;-65
2023/10/18 13:12:38;;;;;;;0.57;0.57;;;13.60;99.90;;;;;;5004487;28;20042;-65
2023/10/18 13:15:06;;;;;;;0.10;0.10;;;13.60;99.90;;;;;;5012096;28;20054;-65
2023/10/18 13:17:32;;;;;;;0.63;0.63;;;13.50;99.90;;;;;;5012072;28;20148;-64
2023/10/18 13:19:58;;;;;;;0.13;0.13;;;13.40;99.90;;;;;;5000048;28;20125;-64
2023/10/18 13:22:25;;;;;;;0.10;0.10;;;13.60;99.90;;;;;;5010737;28;20097;-65
2023/10/18 13:24:50;;;;;;;0.20;0.20;;;13.50;99.90;;;;;;5000724;28;20042;-65
2023/10/18 13:27:27;;;;;;;0.45;0.45;;;13.50;99.90;;;;;;5004928;28;20056;-63
2023/10/18 13:32:51;;;;;;;0.63;0.63;;;13.10;99.90;;;;;;4968071;28;20049;-64
2023/10/18 13:35:16;;;;;;;0.25;0.25;;;13.00;99.90;;;;;;5027619;28;20569;-64
2023/10/18 13:37:43;;;;;;;2.17;1.05;;;12.90;99.90;;;;;;4997695;28;20042;-64
2023/10/18 13:40:18;;;;;;;0.10;0.10;;;12.80;99.90;;;;;;5003778;28;20041;-64
2023/10/18 13:42:45;;;;;;;0.10;0.10;;;12.70;99.90;;;;;;4999602;28;20046;-64
2023/10/18 13:45:11;;;;;;;0.20;0.20;;;12.70;99.90;;;;;;5011124;28;20524;-64
2023/10/18 13:47:36;;;;;;;0.35;0.35;;;12.60;99.90;;;;;;5011011;28;20049;-64
2023/10/18 13:50:03;;;;;;;0.70;0.70;;;12.50;99.90;;;;;;5010137;28;20057;-65